sensor_id;sensor_type;location;lat;lon;timestamp;P1;durP1;ratioP1;P2;durP2;ratioP2
8946;SDS011;4508;48.790;9.028;2022-09-09T00:02:03;2.60;;;1.20;;
8946;SDS011;4508;48.790;9.028;2022-09-09T00:04:37;2.20;;;1.15;;
8946;SDS011;4508;48.790;9.028;2022-09-09T00:07:06;2.90;;;1.48;;
8946;SDS011;4508;48.790;9.028;2022-09-09T00:09:40;3.25;;;1.00;;
8946;SDS011;4508;48.790;9.028;2022-09-09T00:12:14;3.05;;;1.20;;
8946;SDS011;4508;48.790;9.028;2022-09-09T00:14:47;2.53;;;1.25;;
8946;SDS011;4508;48.790;9.028;2022-09-09T00:17:19;1.95;;;1.10;;
8946;SDS011;4508;48.790;9.028;2022-09-09T00:19:53;2.50;;;1.20;;
8946;SDS011;4508;48.790;9.028;2022-09-09T00:22:25;2.92;;;1.25;;
8946;SDS011;4508;48.790;9.028;2022-09-09T00:24:57;2.05;;;1.20;;
8946;SDS011;4508;48.790;9.028;2022-09-09T00:27:30;1.73;;;1.13;;
8946;SDS011;4508;48.790;9.028;2022-09-09T00:30:12;3.40;;;1.30;;
8946;SDS011;4508;48.790;9.028;2022-09-09T00:32:43;1.75;;;1.10;;
8946;SDS011;4508;48.790;9.028;2022-09-09T00:35:14;2.88;;;1.20;;
8946;SDS011;4508;48.790;9.028;2022-09-09T00:37:44;2.45;;;1.27;;
8946;SDS011;4508;48.790;9.028;2022-09-09T00:40:18;2.30;;;1.05;;
8946;SDS011;4508;48.790;9.028;2022-09-09T00:42:52;2.58;;;1.20;;
8946;SDS011;4508;48.790;9.028;2022-09-09T00:45:37;2.67;;;1.20;;
8946;SDS011;4508;48.790;9.028;2022-09-09T00:48:28;2.30;;;1.13;;
8946;SDS011;4508;48.790;9.028;2022-09-09T00:51:02;2.72;;;1.25;;
8946;SDS011;4508;48.790;9.028;2022-09-09T00:53:39;2.85;;;1.10;;
8946;SDS011;4508;48.790;9.028;2022-09-09T00:56:24;2.78;;;1.17;;
8946;SDS011;4508;48.790;9.028;2022-09-09T00:58:58;1.80;;;1.02;;
8946;SDS011;4508;48.790;9.028;2022-09-09T01:01:32;3.72;;;1.30;;
8946;SDS011;4508;48.790;9.028;2022-09-09T01:04:00;4.28;;;1.10;;
8946;SDS011;4508;48.790;9.028;2022-09-09T01:06:35;2.53;;;1.27;;
8946;SDS011;4508;48.790;9.028;2022-09-09T01:09:14;1.70;;;1.10;;
8946;SDS011;4508;48.790;9.028;2022-09-09T01:11:51;2.22;;;1.27;;
8946;SDS011;4508;48.790;9.028;2022-09-09T01:14:30;3.08;;;1.13;;
8946;SDS011;4508;48.790;9.028;2022-09-09T01:17:07;3.03;;;1.30;;
8946;SDS011;4508;48.790;9.028;2022-09-09T01:19:43;2.37;;;1.13;;
8946;SDS011;4508;48.790;9.028;2022-09-09T01:22:20;2.67;;;1.05;;
8946;SDS011;4508;48.790;9.028;2022-09-09T01:25:01;2.08;;;1.10;;
8946;SDS011;4508;48.790;9.028;2022-09-09T01:27:46;2.50;;;1.00;;
8946;SDS011;4508;48.790;9.028;2022-09-09T01:30:14;2.30;;;0.98;;
8946;SDS011;4508;48.790;9.028;2022-09-09T01:32:44;2.03;;;1.05;;
8946;SDS011;4508;48.790;9.028;2022-09-09T01:35:22;1.55;;;1.00;;
8946;SDS011;4508;48.790;9.028;2022-09-09T01:37:57;3.90;;;1.00;;
8946;SDS011;4508;48.790;9.028;2022-09-09T01:40:24;1.80;;;1.08;;
8946;SDS011;4508;48.790;9.028;2022-09-09T01:42:53;2.70;;;1.20;;
8946;SDS011;4508;48.790;9.028;2022-09-09T01:45:20;2.55;;;1.10;;
8946;SDS011;4508;48.790;9.028;2022-09-09T01:47:48;2.97;;;1.05;;
8946;SDS011;4508;48.790;9.028;2022-09-09T01:50:15;1.67;;;1.00;;
8946;SDS011;4508;48.790;9.028;2022-09-09T01:52:43;2.15;;;1.08;;
8946;SDS011;4508;48.790;9.028;2022-09-09T01:55:11;3.00;;;1.10;;
8946;SDS011;4508;48.790;9.028;2022-09-09T01:57:39;1.73;;;1.10;;
8946;SDS011;4508;48.790;9.028;2022-09-09T02:00:13;2.33;;;1.08;;
8946;SDS011;4508;48.790;9.028;2022-09-09T02:02:43;2.30;;;1.00;;
8946;SDS011;4508;48.790;9.028;2022-09-09T02:05:18;1.87;;;1.00;;
8946;SDS011;4508;48.790;9.028;2022-09-09T02:07:55;2.47;;;1.00;;
8946;SDS011;4508;48.790;9.028;2022-09-09T02:10:28;2.60;;;1.05;;
8946;SDS011;4508;48.790;9.028;2022-09-09T02:13:00;1.88;;;0.90;;
8946;SDS011;4508;48.790;9.028;2022-09-09T02:15:50;1.63;;;0.80;;
8946;SDS011;4508;48.790;9.028;2022-09-09T02:18:23;0.90;;;0.65;;
8946;SDS011;4508;48.790;9.028;2022-09-09T02:20:53;1.25;;;0.70;;
8946;SDS011;4508;48.790;9.028;2022-09-09T02:23:20;1.20;;;0.65;;
8946;SDS011;4508;48.790;9.028;2022-09-09T02:25:47;1.67;;;0.82;;
8946;SDS011;4508;48.790;9.028;2022-09-09T02:28:16;1.45;;;0.70;;
8946;SDS011;4508;48.790;9.028;2022-09-09T02:30:46;1.30;;;0.80;;
8946;SDS011;4508;48.790;9.028;2022-09-09T02:33:20;1.10;;;0.63;;
8946;SDS011;4508;48.790;9.028;2022-09-09T02:35:49;1.90;;;0.60;;
8946;SDS011;4508;48.790;9.028;2022-09-09T02:38:16;2.05;;;0.63;;
8946;SDS011;4508;48.790;9.028;2022-09-09T02:40:45;1.75;;;0.70;;
8946;SDS011;4508;48.790;9.028;2022-09-09T02:43:13;2.25;;;0.98;;
8946;SDS011;4508;48.790;9.028;2022-09-09T02:45:42;1.57;;;0.80;;
8946;SDS011;4508;48.790;9.028;2022-09-09T02:48:17;1.33;;;0.90;;
8946;SDS011;4508;48.790;9.028;2022-09-09T02:50:52;1.70;;;0.90;;
8946;SDS011;4508;48.790;9.028;2022-09-09T02:53:26;2.13;;;0.90;;
8946;SDS011;4508;48.790;9.028;2022-09-09T02:55:58;1.77;;;1.00;;
8946;SDS011;4508;48.790;9.028;2022-09-09T02:58:30;1.70;;;0.90;;
8946;SDS011;4508;48.790;9.028;2022-09-09T03:00:57;1.67;;;0.80;;
8946;SDS011;4508;48.790;9.028;2022-09-09T03:03:27;2.17;;;0.85;;
8946;SDS011;4508;48.790;9.028;2022-09-09T03:05:55;1.90;;;1.00;;
8946;SDS011;4508;48.790;9.028;2022-09-09T03:08:22;1.30;;;0.85;;
8946;SDS011;4508;48.790;9.028;2022-09-09T03:10:48;1.13;;;0.70;;
8946;SDS011;4508;48.790;9.028;2022-09-09T03:13:15;1.02;;;0.68;;
8946;SDS011;4508;48.790;9.028;2022-09-09T03:15:44;1.80;;;0.70;;
8946;SDS011;4508;48.790;9.028;2022-09-09T03:18:10;1.70;;;0.88;;
8946;SDS011;4508;48.790;9.028;2022-09-09T03:20:38;1.70;;;0.80;;
8946;SDS011;4508;48.790;9.028;2022-09-09T03:23:07;2.17;;;0.80;;
8946;SDS011;4508;48.790;9.028;2022-09-09T03:25:34;2.50;;;0.70;;
8946;SDS011;4508;48.790;9.028;2022-09-09T03:28:01;1.27;;;0.80;;
8946;SDS011;4508;48.790;9.028;2022-09-09T03:30:28;1.73;;;0.90;;
8946;SDS011;4508;48.790;9.028;2022-09-09T03:32:54;1.00;;;0.80;;
8946;SDS011;4508;48.790;9.028;2022-09-09T03:35:21;2.17;;;1.20;;
8946;SDS011;4508;48.790;9.028;2022-09-09T03:37:49;1.40;;;0.80;;
8946;SDS011;4508;48.790;9.028;2022-09-09T03:40:16;1.80;;;0.80;;
8946;SDS011;4508;48.790;9.028;2022-09-09T03:42:44;0.80;;;0.70;;
8946;SDS011;4508;48.790;9.028;2022-09-09T03:45:11;1.70;;;0.90;;
8946;SDS011;4508;48.790;9.028;2022-09-09T03:47:37;1.42;;;1.05;;
8946;SDS011;4508;48.790;9.028;2022-09-09T03:50:04;1.33;;;0.90;;
8946;SDS011;4508;48.790;9.028;2022-09-09T03:52:34;1.52;;;0.95;;
8946;SDS011;4508;48.790;9.028;2022-09-09T03:55:02;2.13;;;0.90;;
8946;SDS011;4508;48.790;9.028;2022-09-09T03:57:30;1.83;;;0.90;;
8946;SDS011;4508;48.790;9.028;2022-09-09T03:59:59;1.50;;;0.90;;
8946;SDS011;4508;48.790;9.028;2022-09-09T04:02:27;1.80;;;0.80;;
8946;SDS011;4508;48.790;9.028;2022-09-09T04:04:53;2.20;;;0.95;;
8946;SDS011;4508;48.790;9.028;2022-09-09T04:07:20;1.48;;;0.70;;
8946;SDS011;4508;48.790;9.028;2022-09-09T04:09:47;1.98;;;0.80;;
8946;SDS011;4508;48.790;9.028;2022-09-09T04:12:15;1.67;;;0.80;;
8946;SDS011;4508;48.790;9.028;2022-09-09T04:14:42;2.30;;;0.93;;
8946;SDS011;4508;48.790;9.028;2022-09-09T04:17:09;2.03;;;1.00;;
8946;SDS011;4508;48.790;9.028;2022-09-09T04:19:36;1.77;;;0.90;;
8946;SDS011;4508;48.790;9.028;2022-09-09T04:22:02;2.20;;;0.90;;
8946;SDS011;4508;48.790;9.028;2022-09-09T04:24:29;1.57;;;0.80;;
8946;SDS011;4508;48.790;9.028;2022-09-09T04:26:56;2.47;;;1.00;;
8946;SDS011;4508;48.790;9.028;2022-09-09T04:29:24;2.47;;;1.00;;
8946;SDS011;4508;48.790;9.028;2022-09-09T04:31:51;2.10;;;1.00;;
8946;SDS011;4508;48.790;9.028;2022-09-09T04:34:18;1.92;;;0.90;;
8946;SDS011;4508;48.790;9.028;2022-09-09T04:36:44;2.30;;;0.95;;
8946;SDS011;4508;48.790;9.028;2022-09-09T04:39:11;1.75;;;1.00;;
8946;SDS011;4508;48.790;9.028;2022-09-09T04:41:38;2.05;;;1.00;;
8946;SDS011;4508;48.790;9.028;2022-09-09T04:44:04;2.23;;;1.10;;
8946;SDS011;4508;48.790;9.028;2022-09-09T04:46:32;1.88;;;0.90;;
8946;SDS011;4508;48.790;9.028;2022-09-09T04:49:00;1.73;;;0.90;;
8946;SDS011;4508;48.790;9.028;2022-09-09T04:51:26;1.30;;;0.93;;
8946;SDS011;4508;48.790;9.028;2022-09-09T04:53:56;1.70;;;1.00;;
8946;SDS011;4508;48.790;9.028;2022-09-09T04:56:23;2.20;;;1.10;;
8946;SDS011;4508;48.790;9.028;2022-09-09T04:58:51;1.70;;;0.90;;
8946;SDS011;4508;48.790;9.028;2022-09-09T05:01:19;1.10;;;0.80;;
8946;SDS011;4508;48.790;9.028;2022-09-09T05:03:49;2.67;;;1.15;;
8946;SDS011;4508;48.790;9.028;2022-09-09T05:06:17;3.13;;;1.00;;
8946;SDS011;4508;48.790;9.028;2022-09-09T05:08:45;3.88;;;1.20;;
8946;SDS011;4508;48.790;9.028;2022-09-09T05:11:13;1.75;;;1.00;;
8946;SDS011;4508;48.790;9.028;2022-09-09T05:13:42;1.83;;;1.10;;
8946;SDS011;4508;48.790;9.028;2022-09-09T05:16:09;2.15;;;1.10;;
8946;SDS011;4508;48.790;9.028;2022-09-09T05:18:36;1.80;;;1.00;;
8946;SDS011;4508;48.790;9.028;2022-09-09T05:21:04;2.65;;;1.10;;
8946;SDS011;4508;48.790;9.028;2022-09-09T05:23:31;2.45;;;1.13;;
8946;SDS011;4508;48.790;9.028;2022-09-09T05:25:58;2.88;;;0.98;;
8946;SDS011;4508;48.790;9.028;2022-09-09T05:28:26;2.08;;;1.02;;
8946;SDS011;4508;48.790;9.028;2022-09-09T05:30:57;2.85;;;1.20;;
8946;SDS011;4508;48.790;9.028;2022-09-09T05:33:25;1.80;;;1.10;;
8946;SDS011;4508;48.790;9.028;2022-09-09T05:35:56;1.80;;;0.95;;
8946;SDS011;4508;48.790;9.028;2022-09-09T05:38:24;1.65;;;0.90;;
8946;SDS011;4508;48.790;9.028;2022-09-09T05:40:51;1.60;;;0.80;;
8946;SDS011;4508;48.790;9.028;2022-09-09T05:43:18;2.03;;;0.90;;
8946;SDS011;4508;48.790;9.028;2022-09-09T05:45:45;2.85;;;0.98;;
8946;SDS011;4508;48.790;9.028;2022-09-09T05:48:12;1.73;;;0.80;;
8946;SDS011;4508;48.790;9.028;2022-09-09T05:50:40;3.00;;;1.10;;
8946;SDS011;4508;48.790;9.028;2022-09-09T05:53:07;3.00;;;0.80;;
8946;SDS011;4508;48.790;9.028;2022-09-09T05:55:35;1.88;;;0.90;;
8946;SDS011;4508;48.790;9.028;2022-09-09T05:58:02;2.55;;;1.13;;
8946;SDS011;4508;48.790;9.028;2022-09-09T06:00:29;1.88;;;1.10;;
8946;SDS011;4508;48.790;9.028;2022-09-09T06:02:57;1.98;;;1.00;;
8946;SDS011;4508;48.790;9.028;2022-09-09T06:05:23;2.55;;;0.98;;
8946;SDS011;4508;48.790;9.028;2022-09-09T06:07:52;2.15;;;0.82;;
8946;SDS011;4508;48.790;9.028;2022-09-09T06:10:19;2.38;;;1.00;;
8946;SDS011;4508;48.790;9.028;2022-09-09T06:12:47;2.67;;;1.05;;
8946;SDS011;4508;48.790;9.028;2022-09-09T06:15:13;2.63;;;0.90;;
8946;SDS011;4508;48.790;9.028;2022-09-09T06:17:40;2.08;;;1.15;;
8946;SDS011;4508;48.790;9.028;2022-09-09T06:20:08;1.50;;;1.10;;
8946;SDS011;4508;48.790;9.028;2022-09-09T06:22:35;2.30;;;1.10;;
8946;SDS011;4508;48.790;9.028;2022-09-09T06:25:01;2.15;;;1.00;;
8946;SDS011;4508;48.790;9.028;2022-09-09T06:27:28;2.03;;;0.90;;
8946;SDS011;4508;48.790;9.028;2022-09-09T06:29:57;1.83;;;1.00;;
8946;SDS011;4508;48.790;9.028;2022-09-09T06:32:23;2.47;;;1.10;;
8946;SDS011;4508;48.790;9.028;2022-09-09T06:34:51;1.33;;;0.82;;
8946;SDS011;4508;48.790;9.028;2022-09-09T06:37:19;1.57;;;1.00;;
8946;SDS011;4508;48.790;9.028;2022-09-09T06:39:45;2.03;;;1.10;;
8946;SDS011;4508;48.790;9.028;2022-09-09T06:42:13;2.28;;;1.00;;
8946;SDS011;4508;48.790;9.028;2022-09-09T06:44:40;2.78;;;1.10;;
8946;SDS011;4508;48.790;9.028;2022-09-09T06:47:08;3.30;;;1.20;;
8946;SDS011;4508;48.790;9.028;2022-09-09T06:49:36;4.10;;;1.25;;
8946;SDS011;4508;48.790;9.028;2022-09-09T06:52:02;3.35;;;1.15;;
8946;SDS011;4508;48.790;9.028;2022-09-09T06:54:29;2.45;;;1.02;;
8946;SDS011;4508;48.790;9.028;2022-09-09T06:56:56;3.10;;;1.15;;
8946;SDS011;4508;48.790;9.028;2022-09-09T06:59:23;2.90;;;1.10;;
8946;SDS011;4508;48.790;9.028;2022-09-09T07:01:51;1.90;;;1.10;;
8946;SDS011;4508;48.790;9.028;2022-09-09T07:04:20;3.20;;;1.20;;
8946;SDS011;4508;48.790;9.028;2022-09-09T07:06:47;2.87;;;1.10;;
8946;SDS011;4508;48.790;9.028;2022-09-09T07:09:14;2.47;;;1.10;;
8946;SDS011;4508;48.790;9.028;2022-09-09T07:11:42;1.95;;;1.10;;
8946;SDS011;4508;48.790;9.028;2022-09-09T07:14:10;2.30;;;1.00;;
8946;SDS011;4508;48.790;9.028;2022-09-09T07:16:39;2.05;;;1.00;;
8946;SDS011;4508;48.790;9.028;2022-09-09T07:19:06;1.67;;;1.00;;
8946;SDS011;4508;48.790;9.028;2022-09-09T07:21:35;4.68;;;1.10;;
8946;SDS011;4508;48.790;9.028;2022-09-09T07:24:01;2.50;;;0.93;;
8946;SDS011;4508;48.790;9.028;2022-09-09T07:26:32;3.22;;;0.98;;
8946;SDS011;4508;48.790;9.028;2022-09-09T07:29:00;2.10;;;1.00;;
8946;SDS011;4508;48.790;9.028;2022-09-09T07:31:27;2.78;;;1.00;;
8946;SDS011;4508;48.790;9.028;2022-09-09T07:33:55;3.35;;;1.10;;
8946;SDS011;4508;48.790;9.028;2022-09-09T07:36:23;1.27;;;0.80;;
8946;SDS011;4508;48.790;9.028;2022-09-09T07:38:52;2.75;;;1.08;;
8946;SDS011;4508;48.790;9.028;2022-09-09T07:41:22;1.85;;;1.05;;
8946;SDS011;4508;48.790;9.028;2022-09-09T07:43:50;1.73;;;0.90;;
8946;SDS011;4508;48.790;9.028;2022-09-09T07:46:19;1.50;;;0.88;;
8946;SDS011;4508;48.790;9.028;2022-09-09T07:48:47;1.77;;;1.00;;
8946;SDS011;4508;48.790;9.028;2022-09-09T07:51:16;1.70;;;0.95;;
8946;SDS011;4508;48.790;9.028;2022-09-09T07:53:45;2.75;;;0.90;;
8946;SDS011;4508;48.790;9.028;2022-09-09T07:56:14;2.13;;;0.93;;
8946;SDS011;4508;48.790;9.028;2022-09-09T07:58:44;1.88;;;0.90;;
8946;SDS011;4508;48.790;9.028;2022-09-09T08:01:12;2.13;;;1.00;;
8946;SDS011;4508;48.790;9.028;2022-09-09T08:03:41;1.83;;;0.90;;
8946;SDS011;4508;48.790;9.028;2022-09-09T08:06:09;2.40;;;0.98;;
8946;SDS011;4508;48.790;9.028;2022-09-09T08:08:37;2.20;;;0.88;;
8946;SDS011;4508;48.790;9.028;2022-09-09T08:11:07;1.90;;;0.80;;
8946;SDS011;4508;48.790;9.028;2022-09-09T08:13:38;2.33;;;0.85;;
8946;SDS011;4508;48.790;9.028;2022-09-09T08:16:06;2.50;;;0.80;;
8946;SDS011;4508;48.790;9.028;2022-09-09T08:18:33;1.88;;;0.77;;
8946;SDS011;4508;48.790;9.028;2022-09-09T08:21:07;2.33;;;0.88;;
8946;SDS011;4508;48.790;9.028;2022-09-09T08:23:37;2.00;;;0.80;;
8946;SDS011;4508;48.790;9.028;2022-09-09T08:26:04;2.40;;;0.82;;
8946;SDS011;4508;48.790;9.028;2022-09-09T08:28:34;2.10;;;0.88;;
8946;SDS011;4508;48.790;9.028;2022-09-09T08:31:09;1.40;;;0.70;;
8946;SDS011;4508;48.790;9.028;2022-09-09T08:33:37;1.53;;;0.87;;
8946;SDS011;4508;48.790;9.028;2022-09-09T08:36:06;2.50;;;0.80;;
8946;SDS011;4508;48.790;9.028;2022-09-09T08:38:35;1.80;;;0.80;;
8946;SDS011;4508;48.790;9.028;2022-09-09T08:41:16;1.73;;;0.80;;
8946;SDS011;4508;48.790;9.028;2022-09-09T08:43:58;1.80;;;0.90;;
8946;SDS011;4508;48.790;9.028;2022-09-09T08:46:34;1.48;;;0.90;;
8946;SDS011;4508;48.790;9.028;2022-09-09T08:49:13;1.38;;;0.80;;
8946;SDS011;4508;48.790;9.028;2022-09-09T08:51:48;2.35;;;0.73;;
8946;SDS011;4508;48.790;9.028;2022-09-09T08:54:16;2.70;;;1.02;;
8946;SDS011;4508;48.790;9.028;2022-09-09T08:56:43;2.60;;;0.80;;
8946;SDS011;4508;48.790;9.028;2022-09-09T08:59:11;1.77;;;0.88;;
8946;SDS011;4508;48.790;9.028;2022-09-09T09:01:52;2.28;;;1.15;;
8946;SDS011;4508;48.790;9.028;2022-09-09T09:04:33;2.10;;;0.85;;
8946;SDS011;4508;48.790;9.028;2022-09-09T09:07:21;1.55;;;0.60;;
8946;SDS011;4508;48.790;9.028;2022-09-09T09:09:58;2.27;;;0.80;;
8946;SDS011;4508;48.790;9.028;2022-09-09T09:12:31;2.85;;;0.90;;
8946;SDS011;4508;48.790;9.028;2022-09-09T09:15:07;2.55;;;1.05;;
8946;SDS011;4508;48.790;9.028;2022-09-09T09:17:43;2.10;;;0.90;;
8946;SDS011;4508;48.790;9.028;2022-09-09T09:20:11;1.90;;;0.90;;
8946;SDS011;4508;48.790;9.028;2022-09-09T09:22:41;2.80;;;1.20;;
8946;SDS011;4508;48.790;9.028;2022-09-09T09:25:15;3.10;;;1.00;;
8946;SDS011;4508;48.790;9.028;2022-09-09T09:27:44;2.88;;;1.00;;
8946;SDS011;4508;48.790;9.028;2022-09-09T09:30:17;3.22;;;1.20;;
8946;SDS011;4508;48.790;9.028;2022-09-09T09:32:50;2.70;;;1.08;;
8946;SDS011;4508;48.790;9.028;2022-09-09T09:35:20;1.92;;;0.65;;
8946;SDS011;4508;48.790;9.028;2022-09-09T09:37:46;1.67;;;0.65;;
8946;SDS011;4508;48.790;9.028;2022-09-09T09:40:14;1.35;;;0.70;;
8946;SDS011;4508;48.790;9.028;2022-09-09T09:42:49;1.03;;;0.60;;
8946;SDS011;4508;48.790;9.028;2022-09-09T09:45:23;1.65;;;0.60;;
8946;SDS011;4508;48.790;9.028;2022-09-09T09:47:59;1.43;;;0.60;;
8946;SDS011;4508;48.790;9.028;2022-09-09T09:50:27;1.23;;;0.60;;
8946;SDS011;4508;48.790;9.028;2022-09-09T09:52:55;1.85;;;0.70;;
8946;SDS011;4508;48.790;9.028;2022-09-09T09:55:23;1.27;;;0.60;;
8946;SDS011;4508;48.790;9.028;2022-09-09T09:57:51;2.00;;;0.70;;
8946;SDS011;4508;48.790;9.028;2022-09-09T10:00:19;2.38;;;0.80;;
8946;SDS011;4508;48.790;9.028;2022-09-09T10:02:48;1.60;;;0.57;;
8946;SDS011;4508;48.790;9.028;2022-09-09T10:05:23;1.80;;;0.70;;
8946;SDS011;4508;48.790;9.028;2022-09-09T10:08:01;2.40;;;0.80;;
8946;SDS011;4508;48.790;9.028;2022-09-09T10:10:33;1.38;;;0.60;;
8946;SDS011;4508;48.790;9.028;2022-09-09T10:13:11;2.40;;;0.80;;
8946;SDS011;4508;48.790;9.028;2022-09-09T10:15:48;2.42;;;0.80;;
8946;SDS011;4508;48.790;9.028;2022-09-09T10:18:30;2.00;;;0.73;;
8946;SDS011;4508;48.790;9.028;2022-09-09T10:21:08;3.92;;;0.90;;
8946;SDS011;4508;48.790;9.028;2022-09-09T10:23:51;2.17;;;0.80;;
8946;SDS011;4508;48.790;9.028;2022-09-09T10:26:35;2.03;;;0.80;;
8946;SDS011;4508;48.790;9.028;2022-09-09T10:29:15;1.77;;;0.70;;
8946;SDS011;4508;48.790;9.028;2022-09-09T10:32:17;2.63;;;0.85;;
8946;SDS011;4508;48.790;9.028;2022-09-09T10:35:02;2.22;;;0.77;;
8946;SDS011;4508;48.790;9.028;2022-09-09T10:37:41;2.10;;;0.70;;
8946;SDS011;4508;48.790;9.028;2022-09-09T10:40:25;2.03;;;0.63;;
8946;SDS011;4508;48.790;9.028;2022-09-09T10:42:59;1.70;;;0.70;;
8946;SDS011;4508;48.790;9.028;2022-09-09T10:45:35;1.50;;;0.80;;
8946;SDS011;4508;48.790;9.028;2022-09-09T10:48:19;2.85;;;0.90;;
8946;SDS011;4508;48.790;9.028;2022-09-09T10:51:15;2.17;;;1.02;;
8946;SDS011;4508;48.790;9.028;2022-09-09T10:54:05;2.03;;;0.90;;
8946;SDS011;4508;48.790;9.028;2022-09-09T10:56:48;3.90;;;0.90;;
8946;SDS011;4508;48.790;9.028;2022-09-09T10:59:22;2.97;;;1.02;;
8946;SDS011;4508;48.790;9.028;2022-09-09T11:01:53;1.73;;;0.70;;
8946;SDS011;4508;48.790;9.028;2022-09-09T11:04:27;1.40;;;0.70;;
8946;SDS011;4508;48.790;9.028;2022-09-09T11:07:00;1.75;;;0.80;;
8946;SDS011;4508;48.790;9.028;2022-09-09T11:09:35;2.25;;;0.73;;
8946;SDS011;4508;48.790;9.028;2022-09-09T11:12:08;1.45;;;0.63;;
8946;SDS011;4508;48.790;9.028;2022-09-09T11:14:41;2.73;;;0.80;;
8946;SDS011;4508;48.790;9.028;2022-09-09T11:17:10;1.50;;;0.80;;
8946;SDS011;4508;48.790;9.028;2022-09-09T11:19:42;1.80;;;0.60;;
8946;SDS011;4508;48.790;9.028;2022-09-09T11:22:14;1.85;;;0.90;;
8946;SDS011;4508;48.790;9.028;2022-09-09T11:24:50;1.42;;;0.60;;
8946;SDS011;4508;48.790;9.028;2022-09-09T11:27:23;1.58;;;0.57;;
8946;SDS011;4508;48.790;9.028;2022-09-09T11:30:02;1.75;;;0.70;;
8946;SDS011;4508;48.790;9.028;2022-09-09T11:32:52;1.13;;;0.50;;
8946;SDS011;4508;48.790;9.028;2022-09-09T11:35:33;0.90;;;0.50;;
8946;SDS011;4508;48.790;9.028;2022-09-09T11:38:17;1.08;;;0.52;;
8946;SDS011;4508;48.790;9.028;2022-09-09T11:40:48;1.02;;;0.60;;
8946;SDS011;4508;48.790;9.028;2022-09-09T11:43:24;1.05;;;0.50;;
8946;SDS011;4508;48.790;9.028;2022-09-09T11:45:54;1.23;;;0.55;;
8946;SDS011;4508;48.790;9.028;2022-09-09T11:48:25;2.13;;;0.70;;
8946;SDS011;4508;48.790;9.028;2022-09-09T11:50:59;1.13;;;0.70;;
8946;SDS011;4508;48.790;9.028;2022-09-09T11:53:27;1.90;;;0.80;;
8946;SDS011;4508;48.790;9.028;2022-09-09T11:56:03;1.13;;;0.50;;
8946;SDS011;4508;48.790;9.028;2022-09-09T11:58:34;1.80;;;0.70;;
8946;SDS011;4508;48.790;9.028;2022-09-09T12:01:16;1.65;;;0.57;;
8946;SDS011;4508;48.790;9.028;2022-09-09T12:07:02;0.83;;;0.50;;
8946;SDS011;4508;48.790;9.028;2022-09-09T12:09:44;0.88;;;0.47;;
8946;SDS011;4508;48.790;9.028;2022-09-09T12:12:25;1.45;;;0.60;;
8946;SDS011;4508;48.790;9.028;2022-09-09T12:14:55;1.75;;;0.57;;
8946;SDS011;4508;48.790;9.028;2022-09-09T12:17:27;2.17;;;0.63;;
8946;SDS011;4508;48.790;9.028;2022-09-09T12:20:08;1.02;;;0.55;;
8946;SDS011;4508;48.790;9.028;2022-09-09T12:22:56;1.40;;;0.65;;
8946;SDS011;4508;48.790;9.028;2022-09-09T12:25:53;1.40;;;0.45;;
8946;SDS011;4508;48.790;9.028;2022-09-09T12:28:27;0.93;;;0.50;;
8946;SDS011;4508;48.790;9.028;2022-09-09T12:31:14;1.97;;;0.60;;
8946;SDS011;4508;48.790;9.028;2022-09-09T12:33:47;1.65;;;0.50;;
8946;SDS011;4508;48.790;9.028;2022-09-09T12:36:14;0.88;;;0.40;;
8946;SDS011;4508;48.790;9.028;2022-09-09T12:38:44;0.63;;;0.40;;
8946;SDS011;4508;48.790;9.028;2022-09-09T12:41:18;0.93;;;0.40;;
8946;SDS011;4508;48.790;9.028;2022-09-09T12:43:48;2.28;;;0.70;;
8946;SDS011;4508;48.790;9.028;2022-09-09T12:46:20;1.23;;;0.40;;
8946;SDS011;4508;48.790;9.028;2022-09-09T12:48:56;1.23;;;0.40;;
8946;SDS011;4508;48.790;9.028;2022-09-09T12:51:24;1.17;;;0.40;;
8946;SDS011;4508;48.790;9.028;2022-09-09T12:53:54;1.02;;;0.50;;
8946;SDS011;4508;48.790;9.028;2022-09-09T12:56:22;2.28;;;0.70;;
8946;SDS011;4508;48.790;9.028;2022-09-09T12:58:53;1.10;;;0.60;;
8946;SDS011;4508;48.790;9.028;2022-09-09T13:01:22;2.05;;;0.50;;
8946;SDS011;4508;48.790;9.028;2022-09-09T13:03:50;1.05;;;0.50;;
8946;SDS011;4508;48.790;9.028;2022-09-09T13:06:19;1.58;;;0.60;;
8946;SDS011;4508;48.790;9.028;2022-09-09T13:08:48;1.85;;;0.47;;
8946;SDS011;4508;48.790;9.028;2022-09-09T13:11:16;2.57;;;0.70;;
8946;SDS011;4508;48.790;9.028;2022-09-09T13:13:50;1.65;;;0.60;;
8946;SDS011;4508;48.790;9.028;2022-09-09T13:16:20;0.85;;;0.50;;
8946;SDS011;4508;48.790;9.028;2022-09-09T13:18:49;1.05;;;0.45;;
8946;SDS011;4508;48.790;9.028;2022-09-09T13:21:16;1.08;;;0.63;;
8946;SDS011;4508;48.790;9.028;2022-09-09T13:23:42;1.35;;;0.57;;
8946;SDS011;4508;48.790;9.028;2022-09-09T13:26:20;1.50;;;0.50;;
8946;SDS011;4508;48.790;9.028;2022-09-09T13:28:49;1.45;;;0.55;;
8946;SDS011;4508;48.790;9.028;2022-09-09T13:31:23;1.42;;;0.52;;
8946;SDS011;4508;48.790;9.028;2022-09-09T13:33:52;1.20;;;0.50;;
8946;SDS011;4508;48.790;9.028;2022-09-09T13:36:27;1.45;;;0.50;;
8946;SDS011;4508;48.790;9.028;2022-09-09T13:38:56;1.52;;;0.50;;
8946;SDS011;4508;48.790;9.028;2022-09-09T13:41:25;1.50;;;0.70;;
8946;SDS011;4508;48.790;9.028;2022-09-09T13:43:55;1.00;;;0.50;;
8946;SDS011;4508;48.790;9.028;2022-09-09T13:46:31;1.10;;;0.50;;
8946;SDS011;4508;48.790;9.028;2022-09-09T13:49:00;0.90;;;0.43;;
8946;SDS011;4508;48.790;9.028;2022-09-09T13:51:35;0.80;;;0.45;;
8946;SDS011;4508;48.790;9.028;2022-09-09T13:54:03;1.17;;;0.47;;
8946;SDS011;4508;48.790;9.028;2022-09-09T13:56:31;1.23;;;0.60;;
8946;SDS011;4508;48.790;9.028;2022-09-09T13:58:57;2.28;;;0.60;;
8946;SDS011;4508;48.790;9.028;2022-09-09T14:01:25;2.00;;;0.52;;
8946;SDS011;4508;48.790;9.028;2022-09-09T14:03:53;3.00;;;0.55;;
8946;SDS011;4508;48.790;9.028;2022-09-09T14:06:20;1.40;;;0.50;;
8946;SDS011;4508;48.790;9.028;2022-09-09T14:08:48;0.95;;;0.50;;
8946;SDS011;4508;48.790;9.028;2022-09-09T14:11:15;1.05;;;0.50;;
8946;SDS011;4508;48.790;9.028;2022-09-09T14:13:43;1.15;;;0.50;;
8946;SDS011;4508;48.790;9.028;2022-09-09T14:16:09;2.15;;;0.60;;
8946;SDS011;4508;48.790;9.028;2022-09-09T14:18:37;1.58;;;0.50;;
8946;SDS011;4508;48.790;9.028;2022-09-09T14:21:05;1.00;;;0.50;;
8946;SDS011;4508;48.790;9.028;2022-09-09T14:23:33;1.27;;;0.50;;
8946;SDS011;4508;48.790;9.028;2022-09-09T14:26:00;1.08;;;0.40;;
8946;SDS011;4508;48.790;9.028;2022-09-09T14:28:27;0.60;;;0.35;;
8946;SDS011;4508;48.790;9.028;2022-09-09T14:30:54;1.30;;;0.50;;
8946;SDS011;4508;48.790;9.028;2022-09-09T14:33:21;1.15;;;0.50;;
8946;SDS011;4508;48.790;9.028;2022-09-09T14:35:54;0.60;;;0.30;;
8946;SDS011;4508;48.790;9.028;2022-09-09T14:38:21;0.73;;;0.40;;
8946;SDS011;4508;48.790;9.028;2022-09-09T14:40:48;0.93;;;0.50;;
8946;SDS011;4508;48.790;9.028;2022-09-09T14:43:15;1.65;;;0.60;;
8946;SDS011;4508;48.790;9.028;2022-09-09T14:45:41;1.15;;;0.47;;
8946;SDS011;4508;48.790;9.028;2022-09-09T14:48:09;1.70;;;0.52;;
8946;SDS011;4508;48.790;9.028;2022-09-09T14:50:35;0.98;;;0.50;;
8946;SDS011;4508;48.790;9.028;2022-09-09T14:53:06;1.40;;;0.40;;
8946;SDS011;4508;48.790;9.028;2022-09-09T14:55:33;2.63;;;0.60;;
8946;SDS011;4508;48.790;9.028;2022-09-09T14:58:00;1.58;;;0.47;;
8946;SDS011;4508;48.790;9.028;2022-09-09T15:00:27;0.98;;;0.50;;
8946;SDS011;4508;48.790;9.028;2022-09-09T15:02:54;0.95;;;0.50;;
8946;SDS011;4508;48.790;9.028;2022-09-09T15:05:21;0.80;;;0.40;;
8946;SDS011;4508;48.790;9.028;2022-09-09T15:07:49;0.77;;;0.47;;
8946;SDS011;4508;48.790;9.028;2022-09-09T15:10:17;1.42;;;0.60;;
8946;SDS011;4508;48.790;9.028;2022-09-09T15:12:44;0.87;;;0.40;;
8946;SDS011;4508;48.790;9.028;2022-09-09T15:15:11;1.33;;;0.55;;
8946;SDS011;4508;48.790;9.028;2022-09-09T15:17:38;1.45;;;0.50;;
8946;SDS011;4508;48.790;9.028;2022-09-09T15:20:05;0.90;;;0.50;;
8946;SDS011;4508;48.790;9.028;2022-09-09T15:22:33;1.27;;;0.50;;
8946;SDS011;4508;48.790;9.028;2022-09-09T15:25:01;1.27;;;0.45;;
8946;SDS011;4508;48.790;9.028;2022-09-09T15:27:29;2.10;;;0.57;;
8946;SDS011;4508;48.790;9.028;2022-09-09T15:29:56;1.27;;;0.50;;
8946;SDS011;4508;48.790;9.028;2022-09-09T15:32:24;1.45;;;0.60;;
8946;SDS011;4508;48.790;9.028;2022-09-09T15:34:50;1.48;;;0.60;;
8946;SDS011;4508;48.790;9.028;2022-09-09T15:37:18;1.43;;;0.67;;
8946;SDS011;4508;48.790;9.028;2022-09-09T15:39:44;1.60;;;0.60;;
8946;SDS011;4508;48.790;9.028;2022-09-09T15:42:11;2.10;;;0.80;;